Time;durP1;ratioP1;P1;durP2;ratioP2;P2;SDS_P1;SDS_P2;PMS_P1;PMS_P2;Temp;Humidity;BMP_temperature;BMP_pressure;BME280_temperature;BME280_humidity;BME280_pressure;Samples;Min_cycle;Max_cycle;Signal;HPM_P1;HPM_P2
2022/12/13 00:00:35;;;;;;;50.33;23.70;;;;;;;-3.29;92.27;100800.38;5054456;28;20090;-68
2022/12/13 00:03:00;;;;;;;54.00;22.02;;;;;;;-3.30;92.50;100796.97;5053326;28;20028;-67
2022/12/13 00:05:26;;;;;;;52.53;23.08;;;;;;;-3.32;92.22;100801.09;5053054;28;20784;-61
2022/12/13 00:07:51;;;;;;;44.55;20.90;;;;;;;-3.33;92.49;100801.88;5051186;28;20090;-61
2022/12/13 00:10:17;;;;;;;48.65;21.70;;;;;;;-3.35;92.19;100806.00;5054316;28;20109;-66
2022/12/13 00:12:42;;;;;;;47.50;22.05;;;;;;;-3.39;92.58;100804.13;5055811;28;20041;-66
2022/12/13 00:15:08;;;;;;;46.10;23.05;;;;;;;-3.41;92.43;100793.09;5049440;28;20479;-61
2022/12/13 00:17:33;;;;;;;48.28;20.60;;;;;;;-3.42;92.20;100803.97;5052234;28;20069;-61
2022/12/13 00:19:59;;;;;;;47.72;22.27;;;;;;;-3.44;92.67;100799.66;5042110;28;20090;-60
2022/12/13 00:22:24;;;;;;;45.42;21.90;;;;;;;-3.47;92.21;100802.03;5056091;28;20575;-61
2022/12/13 00:24:49;;;;;;;51.40;22.60;;;;;;;-3.49;91.86;100808.69;5054614;28;20041;-61
2022/12/13 00:27:16;;;;;;;44.25;20.70;;;;;;;-3.52;91.97;100808.53;5054954;28;20394;-62
2022/12/13 00:29:41;;;;;;;47.13;21.73;;;;;;;-3.52;91.99;100806.00;5053989;28;20043;-63
2022/12/13 00:32:07;;;;;;;54.95;22.20;;;;;;;-3.53;92.12;100801.72;5041087;28;20641;-66
2022/12/13 00:34:32;;;;;;;48.20;21.92;;;;;;;-3.57;92.00;100808.28;5055129;28;20158;-66
2022/12/13 00:36:58;;;;;;;46.38;21.65;;;;;;;-3.58;92.49;100801.53;5032519;28;20120;-66
2022/12/13 00:39:23;;;;;;;53.67;23.13;;;;;;;-3.58;92.11;100803.19;5029070;28;20040;-66
2022/12/13 00:41:48;;;;;;;53.80;22.83;;;;;;;-3.59;92.41;100806.50;5036510;28;20128;-66
2022/12/13 00:44:14;;;;;;;40.70;19.70;;;;;;;-3.60;92.34;100803.09;5031205;28;20045;-67
2022/12/13 00:46:40;;;;;;;54.90;24.55;;;;;;;-3.62;92.50;100806.34;5028577;28;20041;-67
2022/12/13 00:49:06;;;;;;;47.15;21.88;;;;;;;-3.63;92.17;100805.50;5028110;28;20061;-67
2022/12/13 00:51:33;;;;;;;50.10;21.52;;;;;;;-3.64;92.55;100805.41;5030682;28;20451;-66
2022/12/13 00:53:59;;;;;;;56.15;24.25;;;;;;;-3.66;92.24;100801.97;5037912;28;20126;-62
2022/12/13 00:56:27;;;;;;;50.63;24.00;;;;;;;-3.67;92.46;100802.75;5033610;28;20038;-61
2022/12/13 00:58:54;;;;;;;48.38;22.50;;;;;;;-3.68;92.32;100806.03;5036352;28;20406;-61
2022/12/13 01:01:25;;;;;;;49.15;21.60;;;;;;;-3.69;92.45;100812.78;5033465;28;20111;-61
2022/12/13 01:03:53;;;;;;;53.40;23.50;;;;;;;-3.70;92.56;100802.59;5028405;28;20149;-61
2022/12/13 01:06:22;;;;;;;44.35;21.40;;;;;;;-3.72;92.31;100802.53;5036150;28;20436;-61
2022/12/13 01:08:48;;;;;;;53.40;23.50;;;;;;;-3.75;92.40;100795.66;5052387;28;20029;-61
2022/12/13 01:11:16;;;;;;;55.15;23.20;;;;;;;-3.76;92.38;100790.53;5037959;28;20044;-61
2022/12/13 01:13:42;;;;;;;55.08;25.08;;;;;;;-3.77;92.45;100791.31;5041528;28;20176;-65
2022/12/13 01:16:09;;;;;;;57.00;25.23;;;;;;;-3.77;92.29;100797.25;5041226;28;20040;-65
2022/12/13 01:18:35;;;;;;;57.53;22.77;;;;;;;-3.78;92.42;100792.13;5039438;28;20045;-65
2022/12/13 01:21:04;;;;;;;54.83;23.60;;;;;;;-3.78;92.38;100795.50;5039214;28;20693;-60
2022/12/13 01:23:29;;;;;;;53.25;23.50;;;;;;;-3.77;92.68;100794.72;5057464;28;20409;-60
2022/12/13 01:25:55;;;;;;;50.55;22.23;;;;;;;-3.80;92.68;100789.50;5039850;28;20048;-61
2022/12/13 01:28:21;;;;;;;53.50;23.98;;;;;;;-3.79;92.51;100797.97;5040164;28;20682;-65
2022/12/13 01:30:57;;;;;;;50.67;22.45;;;;;;;-3.78;92.33;100797.19;5036508;28;20045;-65
2022/12/13 01:33:23;;;;;;;53.22;23.35;;;;;;;-3.81;92.32;100797.03;5035770;28;20660;-65
2022/12/13 01:35:49;;;;;;;53.15;22.15;;;;;;;-3.82;92.47;100798.69;5034754;28;20036;-59
2022/12/13 01:38:14;;;;;;;50.97;23.70;;;;;;;-3.84;92.14;100796.88;5038840;28;20053;-60
2022/12/13 01:40:48;;;;;;;55.55;25.65;;;;;;;-3.86;92.51;100804.38;5034539;28;20033;-65
2022/12/13 01:43:14;;;;;;;52.08;22.27;;;;;;;-3.87;92.47;100806.81;5034604;28;20051;-65
2022/12/13 01:45:41;;;;;;;59.00;22.90;;;;;;;-3.90;92.33;100802.50;5041295;28;20661;-64
2022/12/13 01:48:16;;;;;;;48.47;21.13;;;;;;;-3.91;92.33;100793.19;5044758;28;20043;-65
2022/12/13 01:50:46;;;;;;;53.53;23.33;;;;;;;-3.93;92.53;100799.81;5033799;28;20738;-65
2022/12/13 01:53:16;;;;;;;42.70;21.15;;;;;;;-3.94;92.14;100795.56;5041997;28;20805;-59
2022/12/13 01:55:44;;;;;;;50.50;23.25;;;;;;;-3.96;92.32;100796.28;5029564;28;20045;-59
2022/12/13 01:58:10;;;;;;;49.70;23.35;;;;;;;-3.96;92.65;100786.19;5039180;28;20136;-60
2022/12/13 02:00:36;;;;;;;51.17;24.65;;;;;;;-3.98;92.45;100791.13;5045143;28;20133;-59
2022/12/13 02:03:03;;;;;;;54.03;22.77;;;;;;;-3.97;92.55;100784.44;5034713;28;20490;-63
2022/12/13 02:05:48;;;;;;;48.83;22.25;;;;;;;-3.96;92.31;100786.19;5058750;28;20095;-59
2022/12/13 02:08:15;;;;;;;52.50;23.73;;;;;;;-3.95;92.06;100788.75;5049666;28;20122;-59
2022/12/13 02:10:41;;;;;;;53.47;24.70;;;;;;;-3.92;92.48;100786.38;5056768;28;20047;-59
2022/12/13 02:13:07;;;;;;;54.58;24.23;;;;;;;-3.89;92.38;100786.53;5054510;28;20068;-59
2022/12/13 02:16:07;;;;;;;51.33;22.75;;;;;;;-3.90;92.33;100789.00;5055158;28;20144;-59
2022/12/13 02:18:51;;;;;;;54.33;23.20;;;;;;;-3.89;92.39;100786.53;5054898;28;20047;-64
2022/12/13 02:21:25;;;;;;;51.20;24.08;;;;;;;-3.92;92.27;100788.91;5053198;28;20037;-64
2022/12/13 02:24:28;;;;;;;58.78;25.63;;;;;;;-3.93;92.26;100784.69;5054551;28;20029;-64
2022/12/13 02:27:11;;;;;;;59.45;26.30;;;;;;;-3.93;92.12;100786.31;5048183;28;20044;-64
2022/12/13 02:29:59;;;;;;;55.17;22.98;;;;;;;-3.94;92.19;100787.97;5055600;28;20651;-64
2022/12/13 02:32:47;;;;;;;49.05;23.02;;;;;;;-3.98;92.67;100791.13;5052916;28;20455;-64
2022/12/13 02:35:24;;;;;;;55.67;24.52;;;;;;;-4.00;92.18;100787.69;5050847;28;20044;-65
2022/12/13 02:38:03;;;;;;;50.58;23.55;;;;;;;-4.04;92.06;100793.34;5045739;28;20105;-65
2022/12/13 02:40:35;;;;;;;55.13;23.88;;;;;;;-4.04;92.05;100793.34;5054516;28;20081;-65
2022/12/13 02:43:18;;;;;;;52.38;22.73;;;;;;;-4.05;91.96;100791.63;5057139;28;20048;-65
2022/12/13 02:45:52;;;;;;;50.13;22.67;;;;;;;-4.06;91.98;100792.41;5051724;28;20068;-64
2022/12/13 02:48:27;;;;;;;45.40;21.88;;;;;;;-4.05;91.76;100794.16;5054028;28;20043;-67
2022/12/13 02:50:53;;;;;;;48.45;22.02;;;;;;;-4.07;92.00;100788.16;5056129;28;20036;-62
2022/12/13 02:53:20;;;;;;;54.67;24.25;;;;;;;-4.08;91.65;100788.97;5057564;28;20056;-62
2022/12/13 02:55:46;;;;;;;52.80;23.73;;;;;;;-4.08;91.51;100788.09;5057128;28;20039;-62
2022/12/13 02:58:21;;;;;;;53.45;24.98;;;;;;;-4.11;91.37;100787.94;5041546;28;20030;-61
2022/12/13 03:01:04;;;;;;;53.45;23.08;;;;;;;-4.14;91.31;100781.09;5041366;28;20588;-61
2022/12/13 03:03:46;;;;;;;49.30;22.45;;;;;;;-4.16;91.11;100782.63;5040061;28;20060;-58
2022/12/13 03:06:51;;;;;;;47.65;23.02;;;;;;;-4.20;90.95;100779.91;5040081;28;20036;-60
2022/12/13 03:09:45;;;;;;;51.08;22.30;;;;;;;-4.25;90.78;100772.09;5059682;28;20043;-64
2022/12/13 03:15:37;;;;;;;45.90;22.15;;;;;;;-4.27;90.69;100782.91;5039137;28;20777;-65
2022/12/13 03:18:14;;;;;;;61.80;24.30;;;;;;;-4.26;90.61;100788.03;5053163;28;20504;-64
2022/12/13 03:20:46;;;;;;;50.50;23.10;;;;;;;-4.28;90.42;100781.19;5060664;28;20820;-66
2022/12/13 03:23:12;;;;;;;53.67;24.55;;;;;;;-4.29;90.66;100784.47;5060803;28;20044;-66
2022/12/13 03:25:38;;;;;;;59.75;24.90;;;;;;;-4.33;90.58;100791.03;5041614;28;20073;-65
2022/12/13 03:28:03;;;;;;;52.85;23.33;;;;;;;-4.35;90.83;100790.97;5034562;28;20045;-64
2022/12/13 03:30:31;;;;;;;58.70;25.30;;;;;;;-4.34;90.91;100794.31;5034714;28;20040;-65
2022/12/13 03:32:57;;;;;;;54.08;22.95;;;;;;;-4.37;91.06;100800.09;5034120;28;20068;-60
2022/12/13 03:35:23;;;;;;;63.15;27.10;;;;;;;-4.40;91.08;100796.56;5033355;28;20033;-60
2022/12/13 03:37:49;;;;;;;59.88;24.02;;;;;;;-4.41;91.04;100803.25;5033047;28;20147;-65
2022/12/13 03:40:16;;;;;;;60.72;26.17;;;;;;;-4.42;91.33;100796.47;5027689;28;20049;-64
2022/12/13 03:42:41;;;;;;;59.75;25.13;;;;;;;-4.42;91.34;100799.00;5034590;28;20711;-64
2022/12/13 03:45:07;;;;;;;57.67;25.77;;;;;;;-4.40;91.45;100796.56;5028340;28;20068;-64
2022/12/13 03:47:32;;;;;;;60.00;25.85;;;;;;;-4.42;91.41;100803.16;5040052;28;20049;-64
2022/12/13 03:49:58;;;;;;;70.45;27.35;;;;;;;-4.41;91.57;100792.31;5024576;28;20045;-64
2022/12/13 03:52:23;;;;;;;70.13;27.38;;;;;;;-4.38;91.58;100793.31;5031947;28;20617;-65
2022/12/13 03:54:49;;;;;;;64.13;26.08;;;;;;;-4.34;91.62;100802.78;5033105;28;20646;-64
2022/12/13 03:57:14;;;;;;;68.78;27.27;;;;;;;-4.28;91.83;100791.28;5036582;28;20025;-63
2022/12/13 03:59:40;;;;;;;73.30;29.77;;;;;;;-4.24;91.60;100793.16;5034261;28;20059;-64
2022/12/13 04:02:05;;;;;;;68.68;27.48;;;;;;;-4.22;91.77;100791.59;5040232;28;20123;-64
2022/12/13 04:04:30;;;;;;;62.03;28.00;;;;;;;-4.19;91.51;100792.59;5046326;28;20451;-64
2022/12/13 04:06:56;;;;;;;60.40;27.17;;;;;;;-4.20;91.60;100795.91;5028121;28;20542;-60
2022/12/13 04:09:21;;;;;;;68.43;27.73;;;;;;;-4.22;91.74;100794.94;5032589;28;20047;-59
2022/12/13 04:14:31;;;;;;;69.10;27.17;;;;;;;-4.28;91.74;100794.63;5036948;28;20427;-60
2022/12/13 04:16:58;;;;;;;72.50;28.00;;;;;;;-4.33;91.83;100802.00;5035937;28;20498;-59
2022/12/13 04:19:23;;;;;;;70.20;29.15;;;;;;;-4.36;91.98;100789.22;5037307;28;20037;-65
2022/12/13 04:21:48;;;;;;;76.93;29.75;;;;;;;-4.37;92.09;100794.16;5030770;28;20044;-64
2022/12/13 04:24:15;;;;;;;62.53;25.63;;;;;;;-4.39;92.23;100784.00;5032626;28;20794;-64
2022/12/13 04:26:40;;;;;;;64.82;28.13;;;;;;;-4.42;92.51;100795.59;5027293;28;20078;-65
2022/12/13 04:29:06;;;;;;;68.88;27.48;;;;;;;-4.45;92.55;100797.97;5028619;28;20025;-64
2022/12/13 04:31:31;;;;;;;65.20;27.15;;;;;;;-4.47;92.32;100790.34;5028925;28;20556;-64
2022/12/13 04:33:56;;;;;;;60.90;25.08;;;;;;;-4.48;92.55;100795.28;5028899;28;20082;-65
2022/12/13 04:36:22;;;;;;;68.47;29.63;;;;;;;-4.50;92.53;100790.19;5025187;28;20053;-64
2022/12/13 04:38:47;;;;;;;65.05;26.23;;;;;;;-4.51;92.54;100793.47;5031055;28;20039;-59
2022/12/13 04:41:18;;;;;;;62.50;25.85;;;;;;;-4.52;92.70;100789.22;5023346;28;20041;-65
2022/12/13 04:43:43;;;;;;;64.10;26.60;;;;;;;-4.52;92.67;100788.38;5042968;28;20136;-65
2022/12/13 04:46:09;;;;;;;56.05;25.83;;;;;;;-4.54;92.58;100790.78;5047136;28;20041;-64
2022/12/13 04:48:35;;;;;;;64.75;24.92;;;;;;;-4.56;92.35;100787.38;5041597;28;20037;-65
2022/12/13 04:51:01;;;;;;;56.90;23.40;;;;;;;-4.56;92.29;100784.84;5028240;28;20531;-65
2022/12/13 04:53:27;;;;;;;65.20;26.70;;;;;;;-4.57;92.49;100780.59;5029756;28;20451;-65
2022/12/13 04:55:53;;;;;;;60.97;24.92;;;;;;;-4.55;92.36;100770.59;5033025;28;20127;-66
2022/12/13 04:58:18;;;;;;;60.90;26.25;;;;;;;-4.54;92.80;100770.63;5033765;28;20033;-66
2022/12/13 05:00:44;;;;;;;56.95;24.52;;;;;;;-4.54;92.81;100775.66;5030307;28;20391;-65
2022/12/13 05:03:10;;;;;;;60.50;26.58;;;;;;;-4.48;93.01;100767.53;5038103;28;20404;-65
2022/12/13 05:05:39;;;;;;;56.58;23.63;;;;;;;-4.38;93.42;100770.63;5034960;28;20040;-65
2022/12/13 05:08:06;;;;;;;65.78;26.02;;;;;;;-4.26;93.24;100764.47;5032719;28;20113;-65
2022/12/13 05:10:33;;;;;;;57.35;24.20;;;;;;;-4.13;92.78;100757.56;5035970;28;20044;-61
2022/12/13 05:12:59;;;;;;;57.78;25.98;;;;;;;-3.99;92.54;100750.69;5039802;28;20041;-60
2022/12/13 05:15:24;;;;;;;67.70;31.48;;;;;;;-3.88;92.15;100752.06;5031783;28;20116;-64
2022/12/13 05:17:50;;;;;;;84.90;41.78;;;;;;;-3.78;91.72;100752.56;5037212;28;20036;-62
2022/12/13 05:20:15;;;;;;;86.22;41.53;;;;;;;-3.66;91.56;100744.75;5031339;28;20402;-60
2022/12/13 05:22:41;;;;;;;117.68;54.08;;;;;;;-3.60;91.34;100739.94;5035115;28;20094;-60
2022/12/13 05:25:06;;;;;;;116.20;55.42;;;;;;;-3.53;90.82;100746.16;5031826;28;20041;-60
2022/12/13 05:27:32;;;;;;;173.70;78.00;;;;;;;-3.51;90.31;100750.50;5031232;28;20116;-61
2022/12/13 05:29:57;;;;;;;82.75;42.30;;;;;;;-3.49;89.73;100748.06;5036088;28;20744;-61
2022/12/13 05:32:22;;;;;;;63.67;32.88;;;;;;;-3.51;89.49;100744.59;5037423;28;20037;-60
2022/12/13 05:34:48;;;;;;;55.10;24.92;;;;;;;-3.53;89.39;100741.97;5044462;28;20063;-61
2022/12/13 05:37:14;;;;;;;49.05;22.40;;;;;;;-3.59;88.87;100745.88;5029047;28;20073;-60
2022/12/13 05:39:40;;;;;;;48.03;21.15;;;;;;;-3.68;88.76;100743.78;5029248;28;20151;-60
2022/12/13 05:42:05;;;;;;;50.28;24.13;;;;;;;-3.77;88.52;100736.63;5031347;28;20775;-60
2022/12/13 05:44:31;;;;;;;50.65;23.58;;;;;;;-3.83;88.55;100723.72;5029086;28;20126;-60
2022/12/13 05:46:57;;;;;;;49.80;23.65;;;;;;;-3.92;88.28;100728.31;5035729;28;20048;-60
2022/12/13 05:49:22;;;;;;;43.42;22.25;;;;;;;-3.98;88.22;100740.66;5032390;28;20033;-61
2022/12/13 05:51:48;;;;;;;47.55;23.85;;;;;;;-4.04;88.53;100740.34;5040479;28;20040;-59
2022/12/13 05:54:13;;;;;;;47.22;23.08;;;;;;;-4.12;88.60;100736.59;5053786;28;20043;-60
2022/12/13 05:56:39;;;;;;;48.00;20.42;;;;;;;-4.18;88.42;100737.94;5056650;28;20134;-60
2022/12/13 05:59:04;;;;;;;47.30;20.58;;;;;;;-4.22;88.86;100726.81;5059541;28;20148;-60
2022/12/13 06:01:30;;;;;;;45.42;21.85;;;;;;;-4.26;88.92;100731.66;5058711;28;20469;-60
2022/12/13 06:03:55;;;;;;;44.33;21.13;;;;;;;-4.29;88.96;100739.06;5060540;28;20110;-60
2022/12/13 06:06:21;;;;;;;44.58;19.80;;;;;;;-4.35;88.88;100734.59;5051262;28;20032;-60
2022/12/13 06:08:46;;;;;;;44.92;20.80;;;;;;;-4.37;89.24;100734.50;5055553;28;20029;-60
2022/12/13 06:11:11;;;;;;;44.38;20.38;;;;;;;-4.39;89.03;100735.22;5053792;28;20032;-60
2022/12/13 06:13:37;;;;;;;42.33;19.77;;;;;;;-4.38;89.54;100734.44;5057932;28;20044;-60
2022/12/13 06:16:04;;;;;;;46.17;21.17;;;;;;;-4.42;89.54;100735.06;5050981;28;20041;-60
2022/12/13 06:18:32;;;;;;;49.75;19.70;;;;;;;-4.42;89.49;100738.47;5048840;28;20052;-60
2022/12/13 06:21:03;;;;;;;47.78;20.55;;;;;;;-4.45;89.65;100732.38;5034886;28;20775;-59
2022/12/13 06:23:30;;;;;;;47.53;21.17;;;;;;;-4.48;89.58;100727.19;5054385;28;20501;-60
2022/12/13 06:25:56;;;;;;;50.75;21.67;;;;;;;-4.48;90.18;100732.22;5040897;28;20767;-60
2022/12/13 06:28:21;;;;;;;46.47;21.92;;;;;;;-4.49;89.89;100730.53;5050770;28;20037;-61
2022/12/13 06:30:51;;;;;;;50.60;21.50;;;;;;;-4.47;90.14;100736.50;5047156;28;20520;-60
2022/12/13 06:33:17;;;;;;;47.35;21.88;;;;;;;-4.49;90.09;100736.41;5038859;28;20044;-59
2022/12/13 06:35:42;;;;;;;47.03;21.80;;;;;;;-4.52;90.32;100731.19;5054465;28;20124;-60
2022/12/13 06:38:08;;;;;;;76.05;36.47;;;;;;;-4.50;90.31;100726.25;5055697;28;20093;-65
2022/12/13 06:40:33;;;;;;;53.97;26.98;;;;;;;-4.52;90.18;100725.31;5042811;28;20148;-65
2022/12/13 06:42:58;;;;;;;53.55;27.83;;;;;;;-4.54;90.33;100721.84;5043721;28;20131;-66
2022/12/13 06:45:24;;;;;;;52.67;25.27;;;;;;;-4.58;90.25;100723.34;5052667;28;20048;-66
2022/12/13 06:47:50;;;;;;;49.53;23.10;;;;;;;-4.57;90.38;100735.19;5032028;28;20029;-66
2022/12/13 06:50:15;;;;;;;50.92;22.67;;;;;;;-4.57;90.59;100729.28;5030941;28;20044;-65
2022/12/13 06:52:41;;;;;;;53.53;22.45;;;;;;;-4.58;90.56;100738.50;5045015;28;20114;-65
2022/12/13 06:55:07;;;;;;;71.18;34.95;;;;;;;-4.57;90.36;100737.72;5044124;28;20733;-66
2022/12/13 06:57:32;;;;;;;47.92;23.88;;;;;;;-4.56;90.50;100736.94;5034432;28;20126;-66
2022/12/13 06:59:59;;;;;;;53.53;23.63;;;;;;;-4.56;90.30;100731.03;5037138;28;20532;-66
2022/12/13 07:02:24;;;;;;;54.60;22.73;;;;;;;-4.54;90.39;100732.78;5037611;28;20051;-66
2022/12/13 07:04:49;;;;;;;60.15;22.92;;;;;;;-4.53;90.23;100736.19;5033399;28;20037;-65
2022/12/13 07:07:15;;;;;;;53.53;22.08;;;;;;;-4.52;90.22;100738.75;5037160;28;20151;-66
2022/12/13 07:09:40;;;;;;;47.40;22.13;;;;;;;-4.56;90.14;100731.03;5035586;28;20407;-64
2022/12/13 07:12:06;;;;;;;53.88;23.13;;;;;;;-4.56;90.37;100736.06;5032463;28;20127;-64
2022/12/13 07:14:31;;;;;;;50.88;21.55;;;;;;;-4.50;90.53;100733.81;5039708;28;20391;-65
2022/12/13 07:16:57;;;;;;;51.90;23.45;;;;;;;-4.47;90.17;100729.81;5030842;28;20114;-65
2022/12/13 07:19:23;;;;;;;50.80;23.23;;;;;;;-4.47;90.00;100728.94;5028127;28;20045;-65
2022/12/13 07:21:48;;;;;;;54.65;22.90;;;;;;;-4.46;89.69;100731.50;5031812;28;20533;-65
2022/12/13 07:24:13;;;;;;;47.55;22.75;;;;;;;-4.44;89.77;100735.00;5035148;28;20410;-59
2022/12/13 07:26:39;;;;;;;50.35;22.33;;;;;;;-4.43;89.99;100725.78;5035324;28;20043;-59
2022/12/13 07:29:04;;;;;;;48.33;22.55;;;;;;;-4.41;89.67;100729.25;5035013;28;20040;-59
2022/12/13 07:31:29;;;;;;;50.67;22.02;;;;;;;-4.40;89.82;100733.50;5036183;28;20119;-59
2022/12/13 07:33:55;;;;;;;47.13;20.80;;;;;;;-4.39;89.92;100731.03;5034637;28;20566;-58
2022/12/13 07:36:22;;;;;;;47.53;22.52;;;;;;;-4.36;89.66;100730.31;5030329;28;20108;-59
2022/12/13 07:38:55;;;;;;;50.35;21.13;;;;;;;-4.33;89.66;100736.41;5031528;28;20386;-59
2022/12/13 07:41:21;;;;;;;45.85;18.67;;;;;;;-4.29;89.19;100726.47;5025505;28;20046;-58
2022/12/13 07:43:46;;;;;;;45.28;18.83;;;;;;;-4.28;89.39;100725.69;5032466;28;20053;-59
2022/12/13 07:46:12;;;;;;;51.13;20.15;;;;;;;-4.27;88.98;100732.44;5029545;28;20080;-58
2022/12/13 07:48:37;;;;;;;52.58;21.80;;;;;;;-4.27;89.07;100727.38;5036516;28;20063;-58
2022/12/13 07:51:06;;;;;;;49.05;21.55;;;;;;;-4.25;88.88;100735.94;5034561;28;20090;-59
2022/12/13 07:53:32;;;;;;;50.53;21.95;;;;;;;-4.22;88.63;100729.34;5033561;28;20048;-59
2022/12/13 07:56:06;;;;;;;46.25;19.88;;;;;;;-4.24;88.67;100718.31;5038163;28;20441;-61
2022/12/13 07:58:34;;;;;;;45.65;19.85;;;;;;;-4.24;88.78;100710.75;5036945;28;20102;-59
2022/12/13 08:01:02;;;;;;;50.20;22.58;;;;;;;-4.21;88.74;100727.69;5033551;28;20554;-59
2022/12/13 08:03:28;;;;;;;43.45;18.98;;;;;;;-4.19;88.88;100723.63;5037099;28;20044;-58
2022/12/13 08:06:05;;;;;;;57.60;27.60;;;;;;;-4.19;88.84;100724.44;5032595;28;20041;-58
2022/12/13 08:08:31;;;;;;;48.72;22.85;;;;;;;-4.20;88.83;100727.78;5052007;28;20804;-63
2022/12/13 08:11:05;;;;;;;48.17;22.50;;;;;;;-4.19;88.96;100732.03;5053704;28;20339;-58
2022/12/13 08:13:32;;;;;;;48.08;23.55;;;;;;;-4.17;88.92;100732.97;5035616;28;20044;-59
2022/12/13 08:15:59;;;;;;;45.30;22.45;;;;;;;-4.15;88.92;100736.44;5031185;28;20094;-59
2022/12/13 08:18:25;;;;;;;52.35;22.33;;;;;;;-4.11;89.00;100737.47;5031577;28;20040;-61
2022/12/13 08:20:50;;;;;;;46.15;21.02;;;;;;;-4.06;88.54;100736.03;5050421;28;20539;-60
2022/12/13 08:23:16;;;;;;;47.85;20.30;;;;;;;-3.99;88.64;100745.63;5050045;28;20055;-61
2022/12/13 08:25:41;;;;;;;51.20;21.58;;;;;;;-3.95;88.75;100742.44;5052246;28;20535;-61
2022/12/13 08:28:06;;;;;;;50.03;21.70;;;;;;;-3.91;87.89;100742.69;5041100;28;20086;-60
2022/12/13 08:30:32;;;;;;;52.55;20.27;;;;;;;-3.86;87.88;100750.47;5032166;28;20132;-60
2022/12/13 08:32:57;;;;;;;51.13;19.77;;;;;;;-3.84;87.98;100741.34;5031152;28;20828;-66
2022/12/13 08:35:26;;;;;;;42.25;18.25;;;;;;;-3.79;87.58;100739.88;5036165;28;20426;-67
2022/12/13 08:37:52;;;;;;;38.30;17.45;;;;;;;-3.75;87.79;100745.13;5030102;28;20032;-67
2022/12/13 08:40:17;;;;;;;45.20;21.33;;;;;;;-3.70;87.53;100736.94;5023322;28;20694;-67
2022/12/13 08:42:42;;;;;;;78.03;35.05;;;;;;;-3.68;87.67;100741.25;5028745;28;20041;-60
2022/12/13 08:45:08;;;;;;;157.90;78.05;;;;;;;-3.64;87.84;100744.78;5042092;28;20033;-62
2022/12/13 08:47:34;;;;;;;125.22;64.97;;;;;;;-3.61;87.88;100743.28;5027478;28;20068;-65
2022/12/13 08:50:00;;;;;;;74.70;40.67;;;;;;;-3.56;87.76;100746.00;5021037;28;20116;-62
2022/12/13 08:52:26;;;;;;;55.60;28.52;;;;;;;-3.53;87.54;100749.56;5033193;28;20514;-67
2022/12/13 08:54:51;;;;;;;46.53;22.65;;;;;;;-3.46;87.76;100748.19;5033393;28;20048;-67
2022/12/13 08:57:16;;;;;;;37.88;19.58;;;;;;;-3.43;87.39;100753.38;5029739;28;20057;-67
2022/12/13 08:59:42;;;;;;;52.63;25.27;;;;;;;-3.39;87.54;100751.06;5023961;28;20717;-62
2022/12/13 09:02:16;;;;;;;40.95;21.13;;;;;;;-3.34;86.98;100752.16;5030231;28;20036;-60
2022/12/13 09:04:42;;;;;;;46.63;21.25;;;;;;;-3.29;87.20;100753.22;5026491;28;20406;-58
2022/12/13 09:07:07;;;;;;;42.58;21.02;;;;;;;-3.23;86.99;100747.59;5031565;28;20037;-58
2022/12/13 09:09:33;;;;;;;54.03;25.20;;;;;;;-3.17;86.91;100741.94;5030407;28;20041;-60
2022/12/13 09:11:58;;;;;;;65.15;32.70;;;;;;;-3.12;86.49;100751.47;5028306;28;20482;-59
2022/12/13 09:14:24;;;;;;;362.00;145.88;;;;;;;-3.05;86.80;100760.19;5026649;28;20033;-65
2022/12/13 09:16:49;;;;;;;95.15;51.75;;;;;;;-2.99;85.88;100755.41;5029787;28;21021;-66
2022/12/13 09:19:15;;;;;;;56.78;31.92;;;;;;;-2.94;85.88;100754.81;5033385;28;20046;-65
2022/12/13 09:21:40;;;;;;;47.55;26.15;;;;;;;-2.87;85.82;100750.91;5029078;28;20697;-66
2022/12/13 09:24:05;;;;;;;44.67;22.65;;;;;;;-2.81;84.81;100746.13;5037240;28;20040;-65
2022/12/13 09:26:31;;;;;;;39.63;19.05;;;;;;;-2.77;84.60;100743.78;5027205;28;20112;-65
2022/12/13 09:28:56;;;;;;;45.67;19.92;;;;;;;-2.69;84.57;100744.16;5032843;28;20078;-65
2022/12/13 09:31:22;;;;;;;42.15;19.27;;;;;;;-2.59;84.12;100745.41;5028677;28;20041;-65
2022/12/13 09:33:47;;;;;;;36.65;18.88;;;;;;;-2.53;84.21;100744.00;5030936;28;20041;-65
2022/12/13 09:36:16;;;;;;;42.22;19.05;;;;;;;-2.45;83.74;100744.34;5031603;28;20514;-67
2022/12/13 09:38:43;;;;;;;43.92;21.00;;;;;;;-2.38;83.44;100743.81;5036285;28;20762;-67
2022/12/13 09:41:24;;;;;;;39.33;18.30;;;;;;;-2.27;83.32;100750.19;5034174;28;20032;-64
2022/12/13 09:43:56;;;;;;;52.50;23.77;;;;;;;-2.18;83.22;100755.63;5028596;28;20132;-65
2022/12/13 09:46:26;;;;;;;69.97;31.17;;;;;;;-2.14;82.18;100753.28;5026615;28;20083;-65
2022/12/13 09:48:53;;;;;;;65.35;32.83;;;;;;;-2.07;81.91;100759.47;5032446;28;20392;-65
2022/12/13 09:51:19;;;;;;;44.63;22.52;;;;;;;-2.01;81.55;100754.66;5030530;28;20490;-65
2022/12/13 09:53:49;;;;;;;43.05;21.45;;;;;;;-1.95;82.05;100754.91;5037018;28;20036;-65
2022/12/13 09:56:20;;;;;;;38.10;17.80;;;;;;;-1.89;82.22;100746.69;5032890;28;20132;-66
2022/12/13 09:58:51;;;;;;;37.28;19.17;;;;;;;-1.84;81.26;100753.69;5029858;28;20041;-65
2022/12/13 10:01:17;;;;;;;39.45;20.10;;;;;;;-1.79;81.71;100746.28;5035220;28;20037;-64
2022/12/13 10:03:47;;;;;;;46.30;21.17;;;;;;;-1.74;81.56;100755.78;5033411;28;20048;-65
2022/12/13 10:06:19;;;;;;;46.75;22.85;;;;;;;-1.68;81.35;100748.44;5025075;28;20025;-65
2022/12/13 10:08:50;;;;;;;42.65;18.70;;;;;;;-1.61;81.24;100750.41;5033507;28;20040;-65
2022/12/13 10:11:19;;;;;;;36.08;17.75;;;;;;;-1.55;80.90;100743.03;5031497;28;20032;-65
2022/12/13 10:14:08;;;;;;;36.72;17.38;;;;;;;-1.44;80.75;100724.84;5032906;28;20568;-64
2022/12/13 10:16:34;;;;;;;39.88;18.95;;;;;;;-1.40;80.52;100734.31;5036276;28;20079;-65
2022/12/13 10:19:18;;;;;;;38.63;19.02;;;;;;;-1.35;79.98;100717.59;5029009;28;20562;-64
2022/12/13 10:21:45;;;;;;;34.20;18.35;;;;;;;-1.36;79.75;100713.34;5030018;28;20042;-65
2022/12/13 10:24:18;;;;;;;42.15;18.50;;;;;;;-1.33;80.23;100721.06;5030320;28;20431;-65
2022/12/13 10:26:44;;;;;;;38.28;17.92;;;;;;;-1.27;79.56;100714.56;5031464;28;20033;-65
2022/12/13 10:29:10;;;;;;;35.95;16.38;;;;;;;-1.21;79.96;100711.38;5028833;28;20491;-65
2022/12/13 10:31:44;;;;;;;39.45;17.70;;;;;;;-1.15;80.02;100709.06;5032016;28;20044;-64
2022/12/13 10:34:20;;;;;;;34.08;17.50;;;;;;;-1.12;79.52;100701.59;5024557;28;20060;-64
2022/12/13 10:36:45;;;;;;;32.90;17.10;;;;;;;-1.07;79.09;100700.94;5033211;28;20041;-65
2022/12/13 10:39:36;;;;;;;39.08;18.95;;;;;;;-1.04;79.34;100698.50;5031263;28;20122;-64
2022/12/13 10:42:04;;;;;;;35.17;17.55;;;;;;;-1.05;79.93;100694.28;5022955;28;20426;-64
2022/12/13 10:44:30;;;;;;;40.05;21.00;;;;;;;-1.02;79.65;100694.34;5030856;28;20053;-65
2022/12/13 10:47:23;;;;;;;46.58;24.40;;;;;;;-0.95;79.38;100693.78;5025812;28;20966;-61
2022/12/13 10:49:52;;;;;;;45.47;24.30;;;;;;;-0.90;79.11;100688.03;5028977;28;20140;-61
2022/12/13 10:52:31;;;;;;;36.85;21.35;;;;;;;-0.84;78.91;100690.78;5033457;28;21085;-61
2022/12/13 10:55:01;;;;;;;37.55;17.70;;;;;;;-0.79;79.31;100681.66;5034392;28;20044;-61
2022/12/13 10:57:26;;;;;;;39.58;19.08;;;;;;;-0.75;78.54;100669.09;5034641;28;20033;-61
2022/12/13 10:59:52;;;;;;;41.58;18.58;;;;;;;-0.69;77.46;100671.84;5033722;28;20039;-60
2022/12/13 11:02:28;;;;;;;33.80;17.77;;;;;;;-0.62;77.35;100663.66;5033299;28;20061;-60
2022/12/13 11:04:55;;;;;;;44.17;19.73;;;;;;;-0.52;77.56;100662.31;5029261;28;20046;-68
2022/12/13 11:07:26;;;;;;;37.13;17.08;;;;;;;-0.43;77.21;100655.00;5024067;28;20592;-68
2022/12/13 11:09:51;;;;;;;29.55;15.23;;;;;;;-0.39;76.45;100639.03;5025494;28;20048;-68
2022/12/13 11:12:21;;;;;;;32.53;16.98;;;;;;;-0.35;76.28;100643.41;5029050;28;20034;-67
2022/12/13 11:15:05;;;;;;;36.22;17.52;;;;;;;-0.31;76.39;100649.47;5039807;28;20686;-68
2022/12/13 11:17:35;;;;;;;43.75;19.98;;;;;;;-0.29;76.59;100641.06;5032829;28;20322;-69
2022/12/13 11:20:15;;;;;;;33.80;16.60;;;;;;;-0.25;76.01;100634.44;5033035;28;20041;-68